createdAt,value
2023-04-12T00:02:09.266Z,5.03
2023-04-12T00:04:57.531Z,3.90
2023-04-12T00:07:47.103Z,4.00
2023-04-12T00:10:34.561Z,5.50
2023-04-12T00:13:22.030Z,3.93
2023-04-12T00:16:15.343Z,4.80
2023-04-12T00:19:03.932Z,3.90
2023-04-12T00:21:51.370Z,4.60
2023-04-12T00:24:40.897Z,3.53
2023-04-12T00:27:28.356Z,3.37
2023-04-12T00:30:15.835Z,3.73
2023-04-12T00:33:03.340Z,3.77
2023-04-12T00:35:51.083Z,3.97
2023-04-12T00:38:38.564Z,2.77
2023-04-12T00:41:27.485Z,2.87
2023-04-12T00:44:18.147Z,3.20
2023-04-12T00:47:07.981Z,3.63
2023-04-12T00:49:56.933Z,3.60
2023-04-12T00:52:44.581Z,2.80
2023-04-12T00:55:32.257Z,2.83
2023-04-12T00:58:21.699Z,3.90
2023-04-12T01:01:10.638Z,3.47
2023-04-12T01:04:01.579Z,3.23
2023-04-12T01:07:19.185Z,3.47
2023-04-12T01:10:18.939Z,3.20
2023-04-12T01:13:56.041Z,3.43
2023-04-12T01:16:56.443Z,2.90
2023-04-12T01:19:59.108Z,2.80
2023-04-12T01:23:27.012Z,2.80
2023-04-12T01:26:51.984Z,3.80
2023-04-12T01:29:41.691Z,3.63
2023-04-12T01:32:31.121Z,4.20
2023-04-12T01:35:21.707Z,3.80
2023-04-12T01:38:10.674Z,3.80
2023-04-12T01:40:58.565Z,2.63
2023-04-12T01:43:47.797Z,4.47
2023-04-12T01:46:37.910Z,4.20
2023-04-12T01:49:32.428Z,3.57
2023-04-12T01:52:21.905Z,4.73
2023-04-12T01:55:14.175Z,3.70
2023-04-12T01:58:04.105Z,3.47
2023-04-12T02:00:54.694Z,4.03
2023-04-12T02:03:43.638Z,3.67
2023-04-12T02:06:34.249Z,4.20
2023-04-12T02:09:22.828Z,3.67
2023-04-12T02:12:10.769Z,3.77
2023-04-12T02:14:58.305Z,4.60
2023-04-12T02:17:46.351Z,4.63
2023-04-12T02:20:35.722Z,4.13
2023-04-12T02:23:23.353Z,4.17
2023-04-12T02:26:11.908Z,3.07
2023-04-12T02:28:59.380Z,3.23
2023-04-12T02:31:46.813Z,3.20
2023-04-12T02:34:36.761Z,2.80
2023-04-12T02:37:27.663Z,3.03
2023-04-12T02:40:16.259Z,3.03
2023-04-12T02:43:03.706Z,2.53
2023-04-12T02:45:51.241Z,2.90
2023-04-12T02:48:38.776Z,3.30
2023-04-12T02:51:26.248Z,2.27
2023-04-12T02:54:13.894Z,2.57
2023-04-12T02:57:01.619Z,2.10
2023-04-12T02:59:53.196Z,2.40
2023-04-12T03:02:41.252Z,1.93
2023-04-12T03:05:29.331Z,2.53
2023-04-12T03:08:16.774Z,2.00
2023-04-12T03:11:04.371Z,2.17
2023-04-12T03:13:52.537Z,2.53
2023-04-12T03:16:40.086Z,2.63
2023-04-12T03:19:29.010Z,2.57
2023-04-12T03:22:16.499Z,2.13
2023-04-12T03:25:05.578Z,2.00
2023-04-12T03:27:53.340Z,2.37
2023-04-12T03:30:40.960Z,2.50
2023-04-12T03:33:28.846Z,2.70
2023-04-12T03:36:16.530Z,3.07
2023-04-12T03:39:04.211Z,2.37
2023-04-12T03:41:53.317Z,2.00
2023-04-12T03:44:42.089Z,2.40
2023-04-12T03:47:29.710Z,2.80
2023-04-12T03:50:17.392Z,2.27
2023-04-12T03:53:04.801Z,2.73
2023-04-12T03:55:52.319Z,2.40
2023-04-12T03:58:39.891Z,2.43
2023-04-12T04:01:28.442Z,2.00
2023-04-12T04:04:16.174Z,2.07
2023-04-12T04:07:04.153Z,2.30
2023-04-12T04:09:51.647Z,2.10
2023-04-12T04:12:39.141Z,1.73
2023-04-12T04:15:28.271Z,2.07
2023-04-12T04:18:15.774Z,2.53
2023-04-12T04:21:03.257Z,2.03
2023-04-12T04:23:51.942Z,2.17
2023-04-12T04:26:39.492Z,2.00
2023-04-12T04:29:27.817Z,2.33
2023-04-12T04:32:16.070Z,2.30
2023-04-12T04:35:04.128Z,2.10
2023-04-12T04:37:52.942Z,2.10
2023-04-12T04:40:40.351Z,2.43
2023-04-12T04:43:30.376Z,2.00
2023-04-12T04:46:21.297Z,2.10
2023-04-12T04:49:09.535Z,1.97
2023-04-12T04:51:56.984Z,2.20
2023-04-12T04:54:44.525Z,2.60
2023-04-12T04:57:31.969Z,3.60
2023-04-12T05:00:20.162Z,2.67
2023-04-12T05:03:07.664Z,2.33
2023-04-12T05:05:56.568Z,2.07
2023-04-12T05:08:45.257Z,2.60
2023-04-12T05:11:32.792Z,2.67
2023-04-12T05:14:20.454Z,2.97
2023-04-12T05:17:07.924Z,3.33
2023-04-12T05:19:56.209Z,2.47
2023-04-12T05:22:43.692Z,2.10
2023-04-12T05:25:31.170Z,2.53
2023-04-12T05:28:18.673Z,1.93
2023-04-12T05:31:06.510Z,2.20
2023-04-12T05:33:54.710Z,2.10
2023-04-12T05:36:42.237Z,2.07
2023-04-12T05:39:30.921Z,1.80
2023-04-12T05:42:18.392Z,1.37
2023-04-12T05:45:06.944Z,1.77
2023-04-12T05:47:55.965Z,1.17
2023-04-12T05:50:54.606Z,1.30
2023-04-12T05:53:42.290Z,1.30
2023-04-12T05:56:29.773Z,1.63
2023-04-12T05:59:18.855Z,1.53
2023-04-12T06:02:07.619Z,1.83
2023-04-12T06:04:55.926Z,1.50
2023-04-12T06:07:48.467Z,1.43
2023-04-12T06:10:36.015Z,1.60
2023-04-12T06:13:23.437Z,1.10
2023-04-12T06:16:11.317Z,1.57
2023-04-12T06:18:59.143Z,1.17
2023-04-12T06:21:46.980Z,1.30
2023-04-12T06:24:34.384Z,1.30
2023-04-12T06:27:22.856Z,1.23
2023-04-12T06:30:10.800Z,1.10
2023-04-12T06:32:58.409Z,1.20
2023-04-12T06:35:46.134Z,1.83
2023-04-12T06:38:34.273Z,1.10
2023-04-12T06:41:22.180Z,1.27
2023-04-12T06:44:10.375Z,1.70
2023-04-12T06:46:58.397Z,1.63
2023-04-12T06:49:46.043Z,2.10
2023-04-12T06:52:33.581Z,1.87
2023-04-12T06:55:21.796Z,1.50
2023-04-12T06:58:09.275Z,1.67
2023-04-12T07:01:10.268Z,1.70
2023-04-12T07:03:58.223Z,2.07
2023-04-12T07:06:45.950Z,2.00
2023-04-12T07:09:33.604Z,1.40
2023-04-12T07:12:22.006Z,1.30
2023-04-12T07:15:10.076Z,1.63
2023-04-12T07:17:57.657Z,1.00
2023-04-12T07:20:48.592Z,1.20
2023-04-12T07:23:36.106Z,1.57
2023-04-12T07:26:23.964Z,1.30
2023-04-12T07:29:11.428Z,1.57
2023-04-12T07:32:01.316Z,1.53
2023-04-12T07:34:48.737Z,1.60
2023-04-12T07:37:36.495Z,1.50
2023-04-12T07:40:24.841Z,1.40
2023-04-12T07:43:12.333Z,1.57
2023-04-12T07:46:00.215Z,1.70
2023-04-12T07:48:47.724Z,1.60
2023-04-12T07:51:35.306Z,2.00
2023-04-12T07:54:23.677Z,1.33
2023-04-12T07:57:11.360Z,1.47
2023-04-12T07:59:58.835Z,2.00
2023-04-12T08:02:46.483Z,1.80
2023-04-12T08:05:35.385Z,1.57
2023-04-12T08:08:23.215Z,1.30
2023-04-12T08:11:11.078Z,1.37
2023-04-12T08:13:58.842Z,1.60
2023-04-12T08:16:46.760Z,1.53
2023-04-12T08:19:37.714Z,1.60
2023-04-12T08:22:25.973Z,1.33
2023-04-12T08:25:13.846Z,1.67
2023-04-12T08:28:01.288Z,1.47
2023-04-12T08:30:48.765Z,1.73
2023-04-12T08:33:36.253Z,1.67
2023-04-12T08:36:23.774Z,1.67
2023-04-12T08:39:11.289Z,1.20
2023-04-12T08:42:00.825Z,1.20
2023-04-12T08:44:51.185Z,1.40
2023-04-12T08:47:44.787Z,1.40
2023-04-12T08:50:33.177Z,1.30
2023-04-12T08:53:20.768Z,1.40
2023-04-12T08:56:12.505Z,1.30
2023-04-12T08:59:01.767Z,1.10
2023-04-12T09:01:50.856Z,1.87
2023-04-12T09:04:53.737Z,1.33
2023-04-12T09:07:42.795Z,1.97
2023-04-12T09:10:37.113Z,1.37
2023-04-12T09:13:37.183Z,1.43
2023-04-12T09:16:38.684Z,1.40
2023-04-12T09:19:36.650Z,1.40
2023-04-12T09:22:40.265Z,1.63
2023-04-12T09:25:41.978Z,1.20
2023-04-12T09:28:31.019Z,1.70
2023-04-12T09:31:18.491Z,1.80
2023-04-12T09:34:09.617Z,2.30
2023-04-12T09:36:58.125Z,2.00
2023-04-12T09:39:45.706Z,1.60
2023-04-12T09:42:52.598Z,2.30
2023-04-12T09:45:40.177Z,2.40
2023-04-12T09:48:28.966Z,1.80
2023-04-12T09:51:32.953Z,1.93
2023-04-12T09:54:21.098Z,1.33
2023-04-12T09:57:09.598Z,1.70
2023-04-12T10:00:04.301Z,1.90
2023-04-12T10:02:54.816Z,1.58
2023-04-12T10:05:43.184Z,1.80
2023-04-12T10:08:32.801Z,1.63
2023-04-12T10:11:20.465Z,1.83
2023-04-12T10:14:10.015Z,1.70
2023-04-12T10:17:00.431Z,1.83
2023-04-12T10:19:49.032Z,2.45
2023-04-12T10:22:42.915Z,2.22
2023-04-12T10:25:31.789Z,2.20
2023-04-12T10:28:23.977Z,2.13
2023-04-12T10:31:31.415Z,2.03
2023-04-12T10:34:30.431Z,1.73
2023-04-12T10:37:18.008Z,1.95
2023-04-12T10:40:06.442Z,1.67
2023-04-12T10:43:29.016Z,2.22
2023-04-12T10:46:38.684Z,1.88
2023-04-12T10:49:26.675Z,2.13
2023-04-12T10:52:14.965Z,1.98
2023-04-12T10:55:30.207Z,1.70
2023-04-12T10:58:57.704Z,1.90
2023-04-12T11:02:07.623Z,1.60
2023-04-12T11:05:11.525Z,1.88
2023-04-12T11:08:00.937Z,1.73
2023-04-12T11:10:48.467Z,2.10
2023-04-12T11:13:39.067Z,1.70
2023-04-12T11:16:26.620Z,1.60
2023-04-12T11:19:14.111Z,1.95
2023-04-12T11:22:04.474Z,1.80
2023-04-12T11:25:03.340Z,1.98
2023-04-12T11:27:54.856Z,1.45
2023-04-12T11:30:56.144Z,1.77
2023-04-12T11:33:43.646Z,2.08
2023-04-12T11:36:31.146Z,1.27
2023-04-12T11:39:20.265Z,1.83
2023-04-12T11:42:15.638Z,2.00
2023-04-12T11:45:08.304Z,1.90
2023-04-12T11:47:59.486Z,1.88
2023-04-12T11:50:57.027Z,1.60
2023-04-12T11:53:59.545Z,1.20
2023-04-12T11:56:47.378Z,1.52
2023-04-12T11:59:35.708Z,1.38
2023-04-12T12:02:24.635Z,1.60
2023-04-12T12:05:13.183Z,1.65
2023-04-12T12:08:06.126Z,1.70
2023-04-12T12:11:07.208Z,2.20
2023-04-12T12:13:57.222Z,1.67
2023-04-12T12:16:59.003Z,1.75
2023-04-12T12:19:47.097Z,1.75
2023-04-12T12:22:34.918Z,1.50
2023-04-12T12:25:23.811Z,1.55
2023-04-12T12:28:13.673Z,1.77
2023-04-12T12:31:06.597Z,1.55
2023-04-12T12:34:05.750Z,1.20
2023-04-12T12:36:56.821Z,1.23
2023-04-12T12:40:13.827Z,1.40
2023-04-12T12:43:02.019Z,1.20
2023-04-12T12:45:49.469Z,1.42
2023-04-12T12:48:44.114Z,1.60
2023-04-12T12:51:31.614Z,1.40
2023-04-12T12:54:32.148Z,1.38
2023-04-12T12:57:27.093Z,1.60
2023-04-12T13:00:16.855Z,1.67
2023-04-12T13:03:04.732Z,1.55
2023-04-12T13:05:52.510Z,1.58
2023-04-12T13:08:40.099Z,1.40
2023-04-12T13:11:27.909Z,1.40
2023-04-12T13:14:15.334Z,1.27
2023-04-12T13:17:02.816Z,1.70
2023-04-12T13:19:51.886Z,1.52
2023-04-12T13:22:39.416Z,1.35
2023-04-12T13:25:27.124Z,1.23
2023-04-12T13:28:16.940Z,1.10
2023-04-12T13:31:04.659Z,1.48
2023-04-12T13:33:52.359Z,1.35
2023-04-12T13:36:39.756Z,1.05
2023-04-12T13:39:27.433Z,1.10
2023-04-12T13:42:14.963Z,1.13
2023-04-12T13:45:04.156Z,1.10
2023-04-12T13:47:51.739Z,0.85
2023-04-12T13:50:39.187Z,1.05
2023-04-12T13:53:27.369Z,0.90
2023-04-12T13:56:16.279Z,1.00
2023-04-12T13:59:04.039Z,1.02
2023-04-12T14:01:51.601Z,1.00
2023-04-12T14:04:55.172Z,1.15
2023-04-12T14:07:42.754Z,1.25
2023-04-12T14:10:30.398Z,0.90
2023-04-12T14:13:17.929Z,0.90
2023-04-12T14:16:07.462Z,0.88
2023-04-12T14:18:54.913Z,1.00
2023-04-12T14:21:42.486Z,0.98
2023-04-12T14:24:29.953Z,1.20
2023-04-12T14:27:18.208Z,0.70
2023-04-12T14:30:07.401Z,1.33
2023-04-12T14:32:55.053Z,1.20
2023-04-12T14:35:42.522Z,0.88
2023-04-12T14:38:30.003Z,0.70
2023-04-12T14:41:17.492Z,0.93
2023-04-12T14:44:05.612Z,0.82
2023-04-12T14:46:53.438Z,0.60
2023-04-12T14:49:41.031Z,0.73
2023-04-12T14:52:28.488Z,0.93
2023-04-12T14:55:19.414Z,1.13
2023-04-12T14:58:06.988Z,0.90
2023-04-12T15:00:55.317Z,0.90
2023-04-12T15:03:42.935Z,1.30
2023-04-12T15:06:33.868Z,0.90
2023-04-12T15:09:21.333Z,0.90
2023-04-12T15:12:09.469Z,1.00
2023-04-12T15:14:57.797Z,0.90
2023-04-12T15:17:46.451Z,1.38
2023-04-12T15:20:33.984Z,1.50
2023-04-12T15:23:21.462Z,0.82
2023-04-12T15:26:09.423Z,1.20
2023-04-12T15:28:56.975Z,0.80
2023-04-12T15:31:45.157Z,0.90
2023-04-12T15:34:33.981Z,0.90
2023-04-12T15:37:21.791Z,0.93
2023-04-12T15:40:18.567Z,1.02
2023-04-12T15:43:06.641Z,0.70
2023-04-12T15:45:55.142Z,0.70
2023-04-12T15:48:43.452Z,0.75
2023-04-12T15:51:32.512Z,1.35
2023-04-12T15:54:19.929Z,1.10
2023-04-12T15:57:11.079Z,0.90
2023-04-12T15:59:59.613Z,1.10
2023-04-12T16:02:53.688Z,1.20
2023-04-12T16:05:43.296Z,1.10
2023-04-12T16:08:32.052Z,1.00
2023-04-12T16:11:24.034Z,1.10
2023-04-12T16:14:11.720Z,0.90
2023-04-12T16:17:00.014Z,1.38
2023-04-12T16:19:47.753Z,0.98
2023-04-12T16:22:35.269Z,1.17
2023-04-12T16:25:25.776Z,1.38
2023-04-12T16:28:14.559Z,1.05
2023-04-12T16:31:02.087Z,0.85
2023-04-12T16:33:51.096Z,1.13
2023-04-12T16:36:39.402Z,0.97
2023-04-12T16:39:29.366Z,1.10
2023-04-12T16:42:17.413Z,1.00
2023-04-12T16:45:05.933Z,0.90
2023-04-12T16:47:55.022Z,0.80
2023-04-12T16:50:47.429Z,1.10
2023-04-12T16:53:35.950Z,0.90
2023-04-12T16:56:24.855Z,0.90
2023-04-12T16:59:12.354Z,0.80
2023-04-12T17:02:02.903Z,1.00
2023-04-12T17:04:50.595Z,1.20
2023-04-12T17:07:38.038Z,0.97
2023-04-12T17:10:26.749Z,1.00
2023-04-12T17:13:18.621Z,0.98
2023-04-12T17:16:07.919Z,1.20
2023-04-12T17:18:55.418Z,1.10
2023-04-12T17:21:43.010Z,0.93
2023-04-12T17:24:30.556Z,0.97
2023-04-12T17:27:18.019Z,1.33
2023-04-12T17:30:09.260Z,1.00
2023-04-12T17:32:57.762Z,0.90
2023-04-12T17:35:46.118Z,1.03
2023-04-12T17:38:33.627Z,1.77
2023-04-12T17:41:21.548Z,1.50
2023-04-12T17:44:09.057Z,0.93
2023-04-12T17:46:56.871Z,1.10
2023-04-12T17:49:46.585Z,0.87
2023-04-12T17:52:34.095Z,0.97
2023-04-12T17:55:24.161Z,0.90
2023-04-12T17:58:11.863Z,1.20
2023-04-12T18:00:59.758Z,1.20
2023-04-12T18:03:48.132Z,1.13
2023-04-12T18:06:35.750Z,1.20
2023-04-12T18:09:25.789Z,1.20
2023-04-12T18:12:13.674Z,1.20
2023-04-12T18:15:01.420Z,1.30
2023-04-12T18:17:49.245Z,0.87
2023-04-12T18:20:36.787Z,0.97
2023-04-12T18:23:24.342Z,2.97
2023-04-12T18:26:11.770Z,1.50
2023-04-12T18:29:02.215Z,1.87
2023-04-12T18:31:49.744Z,1.90
2023-04-12T18:34:37.324Z,1.60
2023-04-12T18:37:24.862Z,1.40
2023-04-12T18:40:13.346Z,1.23
2023-04-12T18:43:03.143Z,3.33
2023-04-12T18:45:51.092Z,1.80
2023-04-12T18:48:38.711Z,1.40
2023-04-12T18:51:26.744Z,1.30
2023-04-12T18:54:16.063Z,1.97
2023-04-12T18:57:03.691Z,1.37
2023-04-12T18:59:51.595Z,1.60
2023-04-12T19:02:39.445Z,1.40
2023-04-12T19:05:27.748Z,1.60
2023-04-12T19:08:15.358Z,2.10
2023-04-12T19:11:03.078Z,1.57
2023-04-12T19:13:50.818Z,1.63
2023-04-12T19:16:38.575Z,1.80
2023-04-12T19:19:26.601Z,2.00
2023-04-12T19:22:14.084Z,1.70
2023-04-12T19:25:01.991Z,1.50
2023-04-12T19:27:49.636Z,1.97
2023-04-12T19:30:37.172Z,1.60
2023-04-12T19:33:25.504Z,2.10
2023-04-12T19:36:13.289Z,1.77
2023-04-12T19:39:01.833Z,1.27
2023-04-12T19:41:49.416Z,2.07
2023-04-12T19:44:40.196Z,2.00
2023-04-12T19:47:28.036Z,1.80
2023-04-12T19:50:17.142Z,1.87
2023-04-12T19:53:06.238Z,1.33
2023-04-12T19:55:57.470Z,1.00
2023-04-12T19:58:45.475Z,2.67
2023-04-12T20:01:47.856Z,1.30
2023-04-12T20:04:35.869Z,1.73
2023-04-12T20:07:23.444Z,1.30
2023-04-12T20:10:12.971Z,1.47
2023-04-12T20:13:00.597Z,1.90
2023-04-12T20:15:48.758Z,1.57
2023-04-12T20:18:36.833Z,1.53
2023-04-12T20:21:25.080Z,1.67
2023-04-12T20:24:12.774Z,1.50
2023-04-12T20:27:02.291Z,1.53
2023-04-12T20:29:49.872Z,2.10
2023-04-12T20:32:37.537Z,1.07
2023-04-12T20:35:25.815Z,1.73
2023-04-12T20:38:13.833Z,1.43
2023-04-12T20:41:01.472Z,1.30
2023-04-12T20:43:48.926Z,1.10
2023-04-12T20:46:37.643Z,1.87
2023-04-12T20:49:28.202Z,1.60
2023-04-12T20:52:17.052Z,1.50
2023-04-12T20:55:05.650Z,1.37
2023-04-12T20:57:55.985Z,1.30
2023-04-12T21:00:43.484Z,1.70
2023-04-12T21:03:36.216Z,1.43
2023-04-12T21:06:23.777Z,1.20
2023-04-12T21:09:11.470Z,1.07
2023-04-12T21:12:02.731Z,1.27
2023-04-12T21:14:50.981Z,1.40
2023-04-12T21:17:39.074Z,1.50
2023-04-12T21:20:26.782Z,1.60
2023-04-12T21:23:18.297Z,1.00
2023-04-12T21:26:06.851Z,1.37
2023-04-12T21:28:54.394Z,1.33
2023-04-12T21:31:42.442Z,1.77
2023-04-12T21:34:32.734Z,1.90
2023-04-12T21:37:22.339Z,1.90
2023-04-12T21:40:10.300Z,1.33
2023-04-12T21:42:57.811Z,1.40
2023-04-12T21:45:45.468Z,1.60
2023-04-12T21:48:33.532Z,1.20
2023-04-12T21:51:22.972Z,1.53
2023-04-12T21:54:10.506Z,1.40
2023-04-12T21:56:58.368Z,1.40
2023-04-12T21:59:46.053Z,2.17
2023-04-12T22:02:33.626Z,1.70
2023-04-12T22:05:21.328Z,1.50
2023-04-12T22:08:09.086Z,1.90
2023-04-12T22:10:56.569Z,1.73
2023-04-12T22:13:46.205Z,1.73
2023-04-12T22:16:33.857Z,1.87
2023-04-12T22:19:21.566Z,1.63
2023-04-12T22:22:09.889Z,2.27
2023-04-12T22:24:57.366Z,1.67
2023-04-12T22:27:47.900Z,2.07
2023-04-12T22:30:35.982Z,1.53
2023-04-12T22:33:23.394Z,2.63
2023-04-12T22:36:11.118Z,1.87
2023-04-12T22:38:58.608Z,2.27
2023-04-12T22:41:49.475Z,2.87
2023-04-12T22:44:39.754Z,2.50
2023-04-12T22:47:30.529Z,2.53
2023-04-12T22:50:18.208Z,2.57
2023-04-12T22:53:05.632Z,2.90
2023-04-12T22:55:57.614Z,2.60
2023-04-12T22:58:45.038Z,2.13
2023-04-12T23:01:32.588Z,2.50
2023-04-12T23:04:20.324Z,3.07
2023-04-12T23:07:07.890Z,2.50
2023-04-12T23:09:56.191Z,2.67
2023-04-12T23:12:43.663Z,2.77
2023-04-12T23:15:34.410Z,2.13
2023-04-12T23:18:21.838Z,1.73
2023-04-12T23:21:11.959Z,2.50
2023-04-12T23:23:59.480Z,2.47
2023-04-12T23:26:47.371Z,3.67
2023-04-12T23:29:37.562Z,3.03
2023-04-12T23:32:25.795Z,2.07
2023-04-12T23:35:14.607Z,2.23
2023-04-12T23:38:02.986Z,2.67
2023-04-12T23:40:54.205Z,1.53
2023-04-12T23:43:41.987Z,2.10
2023-04-12T23:46:29.722Z,1.67
2023-04-12T23:49:17.282Z,1.87
2023-04-12T23:52:04.839Z,1.87
2023-04-12T23:54:52.845Z,1.90
2023-04-12T23:57:40.306Z,1.53
